EWG18N LGMK-LGAV
Flight info
| Callsign | EWG18N |
|---|---|
| Flight time | 0h 31m |
| Altitude | 14000 |
| Route | VARIX |
| Aircraft | A320/M-SDE3FGHIRWY/LB1 |
Departure
| Time | 2026-05-09 11:09 |
|---|---|
| Airport | Mykonos Island National Airport (LGMK) |
Arrival
| Time | 2026-05-09 11:40 |
|---|---|
| Airport | Athens Eleftherios Venizelos International Airport (LGAV) |
| Time | Latitude | Longitude | Altitude | Speed | Heading |
|---|---|---|---|---|---|
| 2026-05-09 10:38 | 37.43543 | 25.34628 | 407 ft | 0 kts | 251° |
| 2026-05-09 10:56 | 37.43546 | 25.34641 | 407 ft | 4 kts | 256° |
| 2026-05-09 10:56 | 37.43548 | 25.34673 | 405 ft | 4 kts | 286° |
| 2026-05-09 10:57 | 37.43535 | 25.34698 | 400 ft | 3 kts | 338° |
| 2026-05-09 10:57 | 37.43528 | 25.34701 | 406 ft | 0 kts | 341° |
| 2026-05-09 11:04 | 37.43536 | 25.34698 | 405 ft | 3 kts | 341° |
| 2026-05-09 11:04 | 37.43553 | 25.34691 | 408 ft | 2 kts | 341° |
| 2026-05-09 11:04 | 37.43573 | 25.34682 | 405 ft | 3 kts | 341° |
| 2026-05-09 11:04 | 37.43594 | 25.34674 | 408 ft | 3 kts | 345° |
| 2026-05-09 11:05 | 37.43617 | 25.34677 | 408 ft | 4 kts | 15° |
| 2026-05-09 11:05 | 37.43638 | 25.34689 | 409 ft | 2 kts | 30° |
| 2026-05-09 11:05 | 37.43652 | 25.34700 | 409 ft | 1 kts | 33° |
| 2026-05-09 11:05 | 37.43660 | 25.34707 | 406 ft | 4 kts | 32° |
| 2026-05-09 11:06 | 37.43688 | 25.34724 | 411 ft | 8 kts | 19° |
| 2026-05-09 11:06 | 37.43751 | 25.34718 | 411 ft | 17 kts | 342° |
| 2026-05-09 11:06 | 37.43895 | 25.34655 | 412 ft | 27 kts | 341° |
| 2026-05-09 11:06 | 37.44109 | 25.34563 | 408 ft | 38 kts | 341° |
| 2026-05-09 11:07 | 37.44250 | 25.34521 | 403 ft | 15 kts | 7° |
| 2026-05-09 11:07 | 37.44247 | 25.34492 | 404 ft | 9 kts | 154° |
| 2026-05-09 11:07 | 37.44188 | 25.34522 | 407 ft | 9 kts | 160° |
| 2026-05-09 11:07 | 37.44183 | 25.34525 | 407 ft | 0 kts | 160° |
| 2026-05-09 11:08 | 37.44065 | 25.34578 | 408 ft | 53 kts | 160° |
| 2026-05-09 11:08 | 37.43493 | 25.34833 | 410 ft | 118 kts | 160° |
| 2026-05-09 11:08 | 37.42619 | 25.35211 | 814 ft | 134 kts | 162° |
| 2026-05-09 11:09 | 37.41727 | 25.35582 | 1519 ft | 136 kts | 162° |
| 2026-05-09 11:09 | 37.40777 | 25.35960 | 2049 ft | 155 kts | 163° |
| 2026-05-09 11:09 | 37.39674 | 25.36410 | 2389 ft | 178 kts | 162° |
| 2026-05-09 11:09 | 37.38444 | 25.36962 | 2812 ft | 195 kts | 161° |
| 2026-05-09 11:10 | 37.37163 | 25.37555 | 3623 ft | 196 kts | 162° |
| 2026-05-09 11:10 | 37.35867 | 25.38147 | 4448 ft | 200 kts | 166° |
| 2026-05-09 11:10 | 37.34507 | 25.38234 | 5166 ft | 198 kts | 200° |
| 2026-05-09 11:10 | 37.33363 | 25.37240 | 5710 ft | 212 kts | 235° |
| 2026-05-09 11:11 | 37.32624 | 25.35593 | 5967 ft | 221 kts | 241° |
| 2026-05-09 11:11 | 37.31911 | 25.33887 | 5999 ft | 220 kts | 241° |
| 2026-05-09 11:11 | 37.31180 | 25.32134 | 6396 ft | 228 kts | 240° |
| 2026-05-09 11:11 | 37.30454 | 25.30401 | 6546 ft | 225 kts | 240° |
| 2026-05-09 11:12 | 37.29716 | 25.28653 | 6946 ft | 229 kts | 240° |
| 2026-05-09 11:12 | 37.28977 | 25.26909 | 7036 ft | 225 kts | 240° |
| 2026-05-09 11:12 | 37.28245 | 25.25182 | 7070 ft | 223 kts | 240° |
| 2026-05-09 11:12 | 37.27569 | 25.23426 | 7056 ft | 224 kts | 250° |
| 2026-05-09 11:13 | 37.27350 | 25.21484 | 7069 ft | 228 kts | 269° |
| 2026-05-09 11:13 | 37.27733 | 25.19432 | 7074 ft | 260 kts | 290° |
| 2026-05-09 11:13 | 37.28709 | 25.17470 | 7076 ft | 272 kts | 300° |
| 2026-05-09 11:13 | 37.29814 | 25.15453 | 7650 ft | 279 kts | 300° |
| 2026-05-09 11:14 | 37.30927 | 25.13432 | 8763 ft | 277 kts | 300° |
| 2026-05-09 11:14 | 37.32019 | 25.11444 | 9776 ft | 277 kts | 300° |
| 2026-05-09 11:14 | 37.33107 | 25.09451 | 10461 ft | 289 kts | 300° |
| 2026-05-09 11:14 | 37.34283 | 25.07277 | 10767 ft | 312 kts | 300° |
| 2026-05-09 11:15 | 37.35528 | 25.04982 | 11382 ft | 322 kts | 302° |
| 2026-05-09 11:15 | 37.37063 | 25.02881 | 12168 ft | 332 kts | 316° |
| 2026-05-09 11:15 | 37.38973 | 25.01200 | 13007 ft | 337 kts | 321° |
| 2026-05-09 11:15 | 37.40947 | 24.99523 | 13763 ft | 340 kts | 321° |
| 2026-05-09 11:16 | 37.42908 | 24.97860 | 14001 ft | 340 kts | 321° |
| 2026-05-09 11:16 | 37.44876 | 24.96201 | 14073 ft | 343 kts | 321° |
| 2026-05-09 11:16 | 37.46839 | 24.94544 | 14087 ft | 345 kts | 321° |
| 2026-05-09 11:16 | 37.48835 | 24.92859 | 14083 ft | 346 kts | 321° |
| 2026-05-09 11:17 | 37.50828 | 24.91172 | 14082 ft | 345 kts | 321° |
| 2026-05-09 11:17 | 37.52822 | 24.89478 | 14090 ft | 345 kts | 321° |
| 2026-05-09 11:17 | 37.54815 | 24.87782 | 14079 ft | 346 kts | 321° |
| 2026-05-09 11:17 | 37.56813 | 24.86081 | 14076 ft | 346 kts | 321° |
| 2026-05-09 11:18 | 37.58807 | 24.84382 | 14073 ft | 346 kts | 321° |
| 2026-05-09 11:18 | 37.60803 | 24.82680 | 14071 ft | 346 kts | 321° |
| 2026-05-09 11:18 | 37.62795 | 24.80981 | 14069 ft | 346 kts | 321° |
| 2026-05-09 11:18 | 37.64786 | 24.79277 | 14065 ft | 346 kts | 321° |
| 2026-05-09 11:19 | 37.66780 | 24.77568 | 14068 ft | 346 kts | 321° |
| 2026-05-09 11:19 | 37.68776 | 24.75859 | 14062 ft | 346 kts | 321° |
| 2026-05-09 11:19 | 37.70772 | 24.74148 | 14061 ft | 347 kts | 321° |
| 2026-05-09 11:19 | 37.72795 | 24.72416 | 14059 ft | 347 kts | 321° |
| 2026-05-09 11:20 | 37.74792 | 24.70707 | 14039 ft | 345 kts | 321° |
| 2026-05-09 11:20 | 37.76750 | 24.69032 | 13805 ft | 335 kts | 321° |
| 2026-05-09 11:20 | 37.78655 | 24.67401 | 13538 ft | 326 kts | 321° |
| 2026-05-09 11:20 | 37.80521 | 24.65798 | 13278 ft | 323 kts | 321° |
| 2026-05-09 11:21 | 37.82352 | 24.64221 | 13030 ft | 322 kts | 321° |
| 2026-05-09 11:21 | 37.84198 | 24.62628 | 12769 ft | 321 kts | 321° |
| 2026-05-09 11:21 | 37.86043 | 24.61035 | 12521 ft | 321 kts | 321° |
| 2026-05-09 11:21 | 37.87908 | 24.59429 | 12245 ft | 318 kts | 321° |
| 2026-05-09 11:22 | 37.89729 | 24.57864 | 11845 ft | 315 kts | 321° |
| 2026-05-09 11:22 | 37.91508 | 24.56334 | 11418 ft | 313 kts | 321° |
| 2026-05-09 11:22 | 37.93307 | 24.54782 | 10976 ft | 313 kts | 321° |
| 2026-05-09 11:22 | 37.95106 | 24.53228 | 10527 ft | 312 kts | 321° |
| 2026-05-09 11:23 | 37.96896 | 24.51665 | 10102 ft | 312 kts | 316° |
| 2026-05-09 11:23 | 37.98686 | 24.50136 | 9703 ft | 308 kts | 317° |
| 2026-05-09 11:23 | 38.00441 | 24.48651 | 9459 ft | 298 kts | 316° |
| 2026-05-09 11:23 | 38.02127 | 24.47172 | 9219 ft | 290 kts | 315° |
| 2026-05-09 11:24 | 38.03730 | 24.45672 | 9104 ft | 285 kts | 313° |
| 2026-05-09 11:24 | 38.05281 | 24.44114 | 8805 ft | 283 kts | 311° |
| 2026-05-09 11:24 | 38.06782 | 24.42512 | 8542 ft | 281 kts | 309° |
| 2026-05-09 11:24 | 38.08234 | 24.40870 | 8287 ft | 279 kts | 308° |
| 2026-05-09 11:25 | 38.09640 | 24.39186 | 8203 ft | 278 kts | 309° |
| 2026-05-09 11:25 | 38.10975 | 24.37411 | 8008 ft | 277 kts | 309° |
| 2026-05-09 11:25 | 38.12317 | 24.35667 | 7671 ft | 274 kts | 309° |
| 2026-05-09 11:25 | 38.13648 | 24.33942 | 7328 ft | 273 kts | 309° |
| 2026-05-09 11:26 | 38.14966 | 24.32224 | 6975 ft | 271 kts | 309° |
| 2026-05-09 11:26 | 38.16283 | 24.30511 | 6590 ft | 270 kts | 309° |
| 2026-05-09 11:26 | 38.17585 | 24.28811 | 6325 ft | 262 kts | 309° |
| 2026-05-09 11:26 | 38.18864 | 24.27291 | 6187 ft | 245 kts | 323° |
| 2026-05-09 11:27 | 38.20441 | 24.26621 | 5957 ft | 240 kts | 355° |
| 2026-05-09 11:27 | 38.22053 | 24.26976 | 5794 ft | 230 kts | 13° |
| 2026-05-09 11:27 | 38.23561 | 24.27714 | 5212 ft | 241 kts | 28° |
| 2026-05-09 11:27 | 38.25001 | 24.28946 | 4405 ft | 257 kts | 35° |
| 2026-05-09 11:28 | 38.26507 | 24.30142 | 4044 ft | 249 kts | 19° |
| 2026-05-09 11:28 | 38.28123 | 24.30541 | 3991 ft | 225 kts | 354° |
| 2026-05-09 11:28 | 38.29589 | 24.30178 | 4005 ft | 210 kts | 333° |
| 2026-05-09 11:28 | 38.30794 | 24.29227 | 4013 ft | 200 kts | 313° |
| 2026-05-09 11:29 | 38.31631 | 24.27863 | 4010 ft | 194 kts | 293° |
| 2026-05-09 11:29 | 38.32058 | 24.26252 | 4017 ft | 192 kts | 276° |
| 2026-05-09 11:29 | 38.32059 | 24.24577 | 3904 ft | 188 kts | 258° |
| 2026-05-09 11:29 | 38.31644 | 24.23008 | 3787 ft | 187 kts | 240° |
| 2026-05-09 11:30 | 38.30873 | 24.21701 | 3657 ft | 183 kts | 222° |
| 2026-05-09 11:30 | 38.29851 | 24.20782 | 3526 ft | 179 kts | 206° |
| 2026-05-09 11:30 | 38.28669 | 24.20204 | 3406 ft | 183 kts | 201° |
| 2026-05-09 11:30 | 38.27387 | 24.19615 | 3310 ft | 203 kts | 201° |
| 2026-05-09 11:31 | 38.26053 | 24.19003 | 3173 ft | 203 kts | 201° |
| 2026-05-09 11:31 | 38.24752 | 24.18406 | 3063 ft | 194 kts | 201° |
| 2026-05-09 11:31 | 38.23495 | 24.17832 | 3006 ft | 190 kts | 200° |
| 2026-05-09 11:31 | 38.22279 | 24.17278 | 3019 ft | 184 kts | 200° |
| 2026-05-09 11:32 | 38.21086 | 24.16732 | 3002 ft | 186 kts | 200° |
| 2026-05-09 11:32 | 38.19803 | 24.16146 | 3011 ft | 199 kts | 200° |
| 2026-05-09 11:32 | 38.18535 | 24.15565 | 3004 ft | 188 kts | 199° |
| 2026-05-09 11:32 | 38.17332 | 24.15015 | 3002 ft | 180 kts | 199° |
| 2026-05-09 11:33 | 38.16150 | 24.14473 | 3012 ft | 180 kts | 200° |
| 2026-05-09 11:33 | 38.14972 | 24.13935 | 3012 ft | 182 kts | 200° |
| 2026-05-09 11:33 | 38.12583 | 24.12842 | 3021 ft | 179 kts | 200° |
| 2026-05-09 11:34 | 38.11474 | 24.12335 | 3016 ft | 161 kts | 199° |
| 2026-05-09 11:34 | 38.10504 | 24.11794 | 3000 ft | 145 kts | 214° |
| 2026-05-09 11:34 | 38.09726 | 24.11031 | 3005 ft | 140 kts | 216° |
| 2026-05-09 11:34 | 38.08967 | 24.10292 | 3006 ft | 137 kts | 216° |
| 2026-05-09 11:35 | 38.08173 | 24.09518 | 3036 ft | 158 kts | 217° |
| 2026-05-09 11:35 | 38.07277 | 24.08604 | 3023 ft | 170 kts | 216° |
| 2026-05-09 11:35 | 38.06654 | 24.07987 | 2998 ft | 173 kts | 216° |
| 2026-05-09 11:35 | 38.05706 | 24.07067 | 2843 ft | 168 kts | 217° |
| 2026-05-09 11:36 | 38.04797 | 24.06192 | 2662 ft | 160 kts | 215° |
| 2026-05-09 11:36 | 38.03930 | 24.05362 | 2461 ft | 152 kts | 214° |
| 2026-05-09 11:36 | 38.03126 | 24.04592 | 2288 ft | 140 kts | 214° |
| 2026-05-09 11:36 | 38.02368 | 24.03869 | 2114 ft | 134 kts | 213° |
| 2026-05-09 11:37 | 38.01624 | 24.03159 | 1934 ft | 133 kts | 214° |
| 2026-05-09 11:37 | 38.00891 | 24.02459 | 1765 ft | 131 kts | 212° |
| 2026-05-09 11:37 | 38.00165 | 24.01766 | 1581 ft | 131 kts | 214° |
| 2026-05-09 11:37 | 37.99432 | 24.01068 | 1418 ft | 134 kts | 213° |
| 2026-05-09 11:38 | 37.98685 | 24.00356 | 1243 ft | 135 kts | 215° |
| 2026-05-09 11:38 | 37.97947 | 23.99649 | 1091 ft | 132 kts | 215° |
| 2026-05-09 11:38 | 37.97216 | 23.98947 | 926 ft | 137 kts | 214° |
| 2026-05-09 11:38 | 37.96462 | 23.98229 | 705 ft | 135 kts | 218° |
| 2026-05-09 11:39 | 37.95731 | 23.97533 | 491 ft | 131 kts | 216° |
| 2026-05-09 11:39 | 37.95009 | 23.96848 | 366 ft | 130 kts | 216° |
| 2026-05-09 11:39 | 37.94325 | 23.96206 | 289 ft | 108 kts | 217° |
| 2026-05-09 11:40 | 37.93672 | 23.95578 | 280 ft | 9 kts | 217° |
| 2026-05-09 11:40 | 37.93659 | 23.95565 | 281 ft | 2 kts | 219° |
| 2026-05-09 11:40 | 37.93645 | 23.95550 | 280 ft | 4 kts | 219° |
| 2026-05-09 11:40 | 37.93589 | 23.95494 | 282 ft | 12 kts | 220° |
| 2026-05-09 11:41 | 37.93536 | 23.95419 | 283 ft | 12 kts | 233° |
| 2026-05-09 11:41 | 37.93492 | 23.95335 | 286 ft | 11 kts | 242° |
| 2026-05-09 11:41 | 37.93465 | 23.95259 | 294 ft | 8 kts | 248° |
| 2026-05-09 11:41 | 37.93449 | 23.95207 | 295 ft | 5 kts | 249° |
| 2026-05-09 11:42 | 37.93438 | 23.95172 | 298 ft | 4 kts | 248° |
| 2026-05-09 11:42 | 37.93429 | 23.95145 | 297 ft | 3 kts | 248° |
| 2026-05-09 11:42 | 37.93421 | 23.95119 | 300 ft | 4 kts | 246° |
| 2026-05-09 11:42 | 37.93407 | 23.95081 | 299 ft | 6 kts | 245° |
| 2026-05-09 11:43 | 37.93382 | 23.95028 | 301 ft | 8 kts | 239° |
| 2026-05-09 11:43 | 37.93394 | 23.94967 | 300 ft | 7 kts | 301° |
| 2026-05-09 11:43 | 37.93418 | 23.94917 | 302 ft | 6 kts | 303° |
| 2026-05-09 11:43 | 37.93440 | 23.94875 | 302 ft | 5 kts | 305° |
| 2026-05-09 11:44 | 37.93469 | 23.94850 | 301 ft | 9 kts | 353° |
| 2026-05-09 11:44 | 37.93535 | 23.94898 | 301 ft | 11 kts | 35° |
| 2026-05-09 11:44 | 37.93589 | 23.94866 | 301 ft | 9 kts | 307° |
| 2026-05-09 11:44 | 37.93603 | 23.94843 | 301 ft | 0 kts | 307° |
| 2026-05-09 11:45 | 37.93605 | 23.94839 | 301 ft | 0 kts | 307° |